createdAt,value
2023-04-16T00:01:35.663Z,12.70
2023-04-16T00:04:02.645Z,12.60
2023-04-16T00:06:29.858Z,12.60
2023-04-16T00:08:56.686Z,12.60
2023-04-16T00:11:23.564Z,12.60
2023-04-16T00:13:50.254Z,12.60
2023-04-16T00:16:17.020Z,12.60
2023-04-16T00:18:43.795Z,12.60
2023-04-16T00:21:10.560Z,12.60
2023-04-16T00:23:37.852Z,12.60
2023-04-16T00:26:04.606Z,12.60
2023-04-16T00:28:31.355Z,12.60
2023-04-16T00:30:58.187Z,12.70
2023-04-16T00:33:24.842Z,12.70
2023-04-16T00:35:51.537Z,12.70
2023-04-16T00:38:18.234Z,12.70
2023-04-16T00:40:44.939Z,12.70
2023-04-16T00:43:11.571Z,12.70
2023-04-16T00:45:38.745Z,12.70
2023-04-16T00:48:06.245Z,12.70
2023-04-16T00:50:33.562Z,12.70
2023-04-16T00:53:01.538Z,12.70
2023-04-16T00:55:28.437Z,12.70
2023-04-16T00:57:55.123Z,12.70
2023-04-16T01:00:22.013Z,12.70
2023-04-16T01:02:49.001Z,12.70
2023-04-16T01:05:15.981Z,12.70
2023-04-16T01:07:42.706Z,12.70
2023-04-16T01:10:09.482Z,12.70
2023-04-16T01:12:36.193Z,12.70
2023-04-16T01:15:03.365Z,12.80
2023-04-16T01:17:30.294Z,12.70
2023-04-16T01:20:00.674Z,12.70
2023-04-16T01:22:28.636Z,12.70
2023-04-16T01:24:55.553Z,12.70
2023-04-16T01:27:23.463Z,12.70
2023-04-16T01:29:50.126Z,12.70
2023-04-16T01:32:22.341Z,12.80
2023-04-16T01:34:49.003Z,12.80
2023-04-16T01:37:15.763Z,12.80
2023-04-16T01:39:42.401Z,12.80
2023-04-16T01:42:09.150Z,12.80
2023-04-16T01:44:35.829Z,12.80
2023-04-16T01:47:02.790Z,12.80
2023-04-16T01:49:29.734Z,12.80
2023-04-16T01:51:56.519Z,12.80
2023-04-16T01:54:23.137Z,12.80
2023-04-16T01:56:49.793Z,12.80
2023-04-16T01:59:17.103Z,12.80
2023-04-16T02:01:44.046Z,12.80
2023-04-16T02:04:11.995Z,12.80
2023-04-16T02:06:39.224Z,12.80
2023-04-16T02:09:05.922Z,12.80
2023-04-16T02:11:32.702Z,12.80
2023-04-16T02:13:59.673Z,12.80
2023-04-16T02:16:26.557Z,12.80
2023-04-16T02:18:58.987Z,12.80
2023-04-16T02:21:28.403Z,12.80
2023-04-16T02:23:55.555Z,12.80
2023-04-16T02:26:26.937Z,12.80
2023-04-16T02:28:56.086Z,12.80
2023-04-16T02:31:28.689Z,12.80
2023-04-16T02:33:56.512Z,12.80
2023-04-16T02:36:23.562Z,12.80
2023-04-16T02:38:50.203Z,12.80
2023-04-16T02:41:17.028Z,12.80
2023-04-16T02:43:43.759Z,12.80
2023-04-16T02:46:10.514Z,12.80
2023-04-16T02:48:37.315Z,12.80
2023-04-16T02:51:04.097Z,12.80
2023-04-16T02:53:30.805Z,12.80
2023-04-16T02:55:57.629Z,12.80
2023-04-16T02:58:25.619Z,12.80
2023-04-16T03:00:53.352Z,12.80
2023-04-16T03:03:21.082Z,12.80
2023-04-16T03:05:48.431Z,12.90
2023-04-16T03:08:16.582Z,12.90
2023-04-16T03:10:43.382Z,12.90
2023-04-16T03:13:10.199Z,12.90
2023-04-16T03:15:36.877Z,12.90
2023-04-16T03:18:03.809Z,12.90
2023-04-16T03:20:30.545Z,12.90
2023-04-16T03:22:57.231Z,12.90
2023-04-16T03:25:23.858Z,12.90
2023-04-16T03:27:51.307Z,12.90
2023-04-16T03:30:18.712Z,12.90
2023-04-16T03:32:45.541Z,12.90
2023-04-16T03:35:12.774Z,12.90
2023-04-16T03:37:39.575Z,12.90
2023-04-16T03:40:07.274Z,12.90
2023-04-16T03:42:34.466Z,12.90
2023-04-16T03:45:02.378Z,12.90
2023-04-16T03:47:29.224Z,12.90
2023-04-16T03:49:59.580Z,12.90
2023-04-16T03:52:28.082Z,12.90
2023-04-16T03:54:54.983Z,12.90
2023-04-16T03:57:26.190Z,12.90
2023-04-16T03:59:56.441Z,12.90
2023-04-16T04:02:25.557Z,12.80
2023-04-16T04:04:52.390Z,12.90
2023-04-16T04:07:19.130Z,12.80
2023-04-16T04:09:45.818Z,12.80
2023-04-16T04:12:13.443Z,12.80
2023-04-16T04:14:42.414Z,12.80
2023-04-16T04:17:09.366Z,12.80
2023-04-16T04:19:36.889Z,12.80
2023-04-16T04:22:04.536Z,12.80
2023-04-16T04:24:31.210Z,12.80
2023-04-16T04:26:58.686Z,12.80
2023-04-16T04:29:25.398Z,12.80
2023-04-16T04:31:52.157Z,12.70
2023-04-16T04:34:19.175Z,12.70
2023-04-16T04:36:46.253Z,12.70
2023-04-16T04:39:14.031Z,12.70
2023-04-16T04:41:43.315Z,12.70
2023-04-16T04:44:10.166Z,12.70
2023-04-16T04:46:36.886Z,12.70
2023-04-16T04:49:03.562Z,12.70
2023-04-16T04:51:31.790Z,12.70
2023-04-16T04:53:58.641Z,12.70
2023-04-16T04:56:25.553Z,12.60
2023-04-16T04:58:52.529Z,12.60
2023-04-16T05:01:20.471Z,12.60
2023-04-16T05:03:47.171Z,12.70
2023-04-16T05:06:13.997Z,12.60
2023-04-16T05:08:40.721Z,12.60
2023-04-16T05:11:07.361Z,12.60
2023-04-16T05:13:34.099Z,12.50
2023-04-16T05:16:00.912Z,12.50
2023-04-16T05:18:27.703Z,12.50
2023-04-16T05:20:54.428Z,12.50
2023-04-16T05:23:21.075Z,12.50
2023-04-16T05:25:47.703Z,12.40
2023-04-16T05:28:14.364Z,12.40
2023-04-16T05:30:41.150Z,12.40
2023-04-16T05:33:07.875Z,12.40
2023-04-16T05:35:35.061Z,12.30
2023-04-16T05:38:01.818Z,12.30
2023-04-16T05:40:28.606Z,12.30
2023-04-16T05:42:55.250Z,12.30
2023-04-16T05:45:21.996Z,12.30
2023-04-16T05:47:48.664Z,12.30
2023-04-16T05:50:15.642Z,12.20
2023-04-16T05:52:42.312Z,12.20
2023-04-16T05:55:09.474Z,12.20
2023-04-16T05:57:36.122Z,12.20
2023-04-16T06:00:03.599Z,12.20
2023-04-16T06:02:39.148Z,12.20
2023-04-16T06:05:06.265Z,12.20
2023-04-16T06:07:32.923Z,12.20
2023-04-16T06:09:59.562Z,12.20
2023-04-16T06:12:26.183Z,12.20
2023-04-16T06:14:52.817Z,12.20
2023-04-16T06:17:19.551Z,12.10
2023-04-16T06:19:46.262Z,12.10
2023-04-16T06:22:12.964Z,12.10
2023-04-16T06:24:39.705Z,12.10
2023-04-16T06:27:06.358Z,12.10
2023-04-16T06:29:40.559Z,12.10
2023-04-16T06:32:08.132Z,12.20
2023-04-16T06:34:34.896Z,12.10
2023-04-16T06:37:01.557Z,12.10
2023-04-16T06:39:28.236Z,12.10
2023-04-16T06:41:55.930Z,12.10
2023-04-16T06:44:22.650Z,12.20
2023-04-16T06:46:51.029Z,12.20
2023-04-16T06:49:17.775Z,12.20
2023-04-16T06:51:44.549Z,12.20
2023-04-16T06:54:11.260Z,12.20
2023-04-16T06:56:37.925Z,12.20
2023-04-16T06:59:05.725Z,12.20
2023-04-16T07:01:32.429Z,12.30
2023-04-16T07:03:59.377Z,12.30
2023-04-16T07:06:27.024Z,12.30
2023-04-16T07:08:53.780Z,12.40
2023-04-16T07:11:20.912Z,12.40
2023-04-16T07:13:47.746Z,12.40
2023-04-16T07:16:14.497Z,12.50
2023-04-16T07:18:41.247Z,12.50
2023-04-16T07:21:08.039Z,12.50
2023-04-16T07:23:34.809Z,12.60
2023-04-16T07:26:01.447Z,12.60
2023-04-16T07:28:28.107Z,12.80
2023-04-16T07:30:54.813Z,12.70
2023-04-16T07:33:21.498Z,12.70
2023-04-16T07:35:48.127Z,12.80
2023-04-16T07:38:16.232Z,12.80
2023-04-16T07:40:42.958Z,12.80
2023-04-16T07:43:10.111Z,12.90
2023-04-16T07:45:36.849Z,12.90
2023-04-16T07:48:03.605Z,13.00
2023-04-16T07:50:30.297Z,13.10
2023-04-16T07:52:56.982Z,13.10
2023-04-16T07:55:23.756Z,13.10
2023-04-16T07:57:50.470Z,13.20
2023-04-16T08:00:17.336Z,13.30
2023-04-16T08:02:44.386Z,13.30
2023-04-16T08:05:12.489Z,13.40
2023-04-16T08:07:39.219Z,13.40
2023-04-16T08:10:06.480Z,13.40
2023-04-16T08:12:33.250Z,13.50
2023-04-16T08:14:59.937Z,13.50
2023-04-16T08:17:28.350Z,13.50
2023-04-16T08:19:55.044Z,13.60
2023-04-16T08:22:22.457Z,13.60
2023-04-16T08:24:49.085Z,13.70
2023-04-16T08:27:19.615Z,13.80
2023-04-16T08:29:47.930Z,13.90
2023-04-16T08:32:14.702Z,14.00
2023-04-16T08:34:42.226Z,14.20
2023-04-16T08:37:09.251Z,14.30
2023-04-16T08:39:36.012Z,14.50
2023-04-16T08:42:04.903Z,14.60
2023-04-16T08:44:37.560Z,14.70
2023-04-16T08:47:09.267Z,14.90
2023-04-16T08:49:43.068Z,15.00
2023-04-16T08:52:15.286Z,15.10
2023-04-16T08:55:06.182Z,15.20
2023-04-16T08:57:44.634Z,15.30
2023-04-16T09:00:12.035Z,15.40
2023-04-16T09:02:39.395Z,15.50
2023-04-16T09:05:07.542Z,15.70
2023-04-16T09:07:34.878Z,15.80
2023-04-16T09:10:01.964Z,15.90
2023-04-16T09:12:30.823Z,16.00
2023-04-16T09:14:59.701Z,16.10
2023-04-16T09:17:27.170Z,16.20
2023-04-16T09:19:54.832Z,16.40
2023-04-16T09:22:21.569Z,16.60
2023-04-16T09:24:48.241Z,16.90
2023-04-16T09:27:14.907Z,17.10
2023-04-16T09:29:42.004Z,17.30
2023-04-16T09:32:10.972Z,17.40
2023-04-16T09:35:00.591Z,17.50
2023-04-16T09:37:31.259Z,17.60
2023-04-16T09:40:00.477Z,17.70
2023-04-16T09:42:29.314Z,17.70
2023-04-16T09:44:59.430Z,17.90
2023-04-16T09:47:42.433Z,18.00
2023-04-16T09:50:12.525Z,18.20
2023-04-16T09:52:39.728Z,18.30
2023-04-16T09:55:06.865Z,18.40
2023-04-16T09:57:36.730Z,18.50
2023-04-16T10:00:05.961Z,18.50
2023-04-16T10:02:34.462Z,18.50
2023-04-16T10:05:05.903Z,18.50
2023-04-16T10:07:36.994Z,18.50
2023-04-16T10:10:04.895Z,18.60
2023-04-16T10:12:32.712Z,18.60
2023-04-16T10:14:59.517Z,18.70
2023-04-16T10:17:29.700Z,18.80
2023-04-16T10:19:57.983Z,18.80
2023-04-16T10:22:25.623Z,18.90
2023-04-16T10:24:53.285Z,19.00
2023-04-16T10:27:20.411Z,19.10
2023-04-16T10:29:47.851Z,19.20
2023-04-16T10:32:15.390Z,19.30
2023-04-16T10:34:42.464Z,19.40
2023-04-16T10:37:09.085Z,19.60
2023-04-16T10:39:39.360Z,19.70
2023-04-16T10:42:13.349Z,19.80
2023-04-16T10:44:43.475Z,19.90
2023-04-16T10:47:13.552Z,20.00
2023-04-16T10:49:41.083Z,20.10
2023-04-16T10:52:13.815Z,20.20
2023-04-16T10:54:41.331Z,20.20
2023-04-16T10:57:18.163Z,20.30
2023-04-16T10:59:45.976Z,20.30
2023-04-16T11:02:20.474Z,20.30
2023-04-16T11:04:49.323Z,20.20
2023-04-16T11:07:21.601Z,20.20
2023-04-16T11:09:54.043Z,20.10
2023-04-16T11:12:32.974Z,20.00
2023-04-16T11:15:00.683Z,19.90
2023-04-16T11:17:50.320Z,19.90
2023-04-16T11:20:24.940Z,19.70
2023-04-16T11:22:53.216Z,19.60
2023-04-16T11:25:27.116Z,19.50
2023-04-16T11:27:54.612Z,19.30
2023-04-16T11:30:33.965Z,19.20
2023-04-16T11:33:11.195Z,19.10
2023-04-16T11:35:43.234Z,19.10
2023-04-16T11:38:09.879Z,19.00
2023-04-16T11:40:36.573Z,18.90
2023-04-16T11:43:14.681Z,18.90
2023-04-16T11:45:57.438Z,18.80
2023-04-16T11:48:24.289Z,18.80
2023-04-16T11:50:58.054Z,18.80
2023-04-16T11:53:24.898Z,18.70
2023-04-16T11:55:51.610Z,18.70
2023-04-16T11:58:19.962Z,18.70
2023-04-16T12:00:47.412Z,18.60
2023-04-16T12:03:14.378Z,18.60
2023-04-16T12:05:41.337Z,18.50
2023-04-16T12:08:09.647Z,18.50
2023-04-16T12:10:56.617Z,18.50
2023-04-16T12:13:23.352Z,18.40
2023-04-16T12:15:54.751Z,18.40
2023-04-16T12:18:23.605Z,18.30
2023-04-16T12:20:53.545Z,18.30
2023-04-16T12:23:27.981Z,18.30
2023-04-16T12:25:56.044Z,18.30
2023-04-16T12:28:38.178Z,18.20
2023-04-16T12:31:05.689Z,18.20
2023-04-16T12:33:32.482Z,18.20
2023-04-16T12:35:59.289Z,18.20
2023-04-16T12:38:27.007Z,18.30
2023-04-16T12:40:56.661Z,18.30
2023-04-16T12:43:23.775Z,18.20
2023-04-16T12:45:50.479Z,18.30
2023-04-16T12:48:17.130Z,18.30
2023-04-16T12:50:44.231Z,18.20
2023-04-16T12:53:11.411Z,18.20
2023-04-16T12:55:38.155Z,18.20
2023-04-16T12:58:04.794Z,18.30
2023-04-16T13:00:31.444Z,18.20
2023-04-16T13:02:58.200Z,18.30
2023-04-16T13:05:25.060Z,18.30
2023-04-16T13:07:51.831Z,18.30
2023-04-16T13:10:21.867Z,18.40
2023-04-16T13:12:48.828Z,18.30
2023-04-16T13:15:15.711Z,18.30
2023-04-16T13:17:42.364Z,18.30
2023-04-16T13:20:09.984Z,18.20
2023-04-16T13:22:36.856Z,18.30
2023-04-16T13:25:03.634Z,18.20
2023-04-16T13:27:32.009Z,18.20
2023-04-16T13:29:58.677Z,18.20
2023-04-16T13:32:25.353Z,18.30
2023-04-16T13:34:52.033Z,18.30
2023-04-16T13:37:18.705Z,18.30
2023-04-16T13:39:46.358Z,18.30
2023-04-16T13:42:13.020Z,18.30
2023-04-16T13:44:39.705Z,18.30
2023-04-16T13:47:06.593Z,18.30
2023-04-16T13:49:36.030Z,18.40
2023-04-16T13:52:03.439Z,18.40
2023-04-16T13:54:30.077Z,18.40
2023-04-16T13:56:56.961Z,18.40
2023-04-16T13:59:23.656Z,18.40
2023-04-16T14:01:50.997Z,18.40
2023-04-16T14:04:17.862Z,18.50
2023-04-16T14:06:44.649Z,18.50
2023-04-16T14:09:11.445Z,18.50
2023-04-16T14:11:38.247Z,18.60
2023-04-16T14:14:05.084Z,18.60
2023-04-16T14:16:31.804Z,18.60
2023-04-16T14:18:58.475Z,18.60
2023-04-16T14:21:25.229Z,18.60
2023-04-16T14:23:51.937Z,18.60
2023-04-16T14:26:18.674Z,18.70
2023-04-16T14:28:45.439Z,18.60
2023-04-16T14:31:12.318Z,18.60
2023-04-16T14:33:39.047Z,18.60
2023-04-16T14:36:06.206Z,18.60
2023-04-16T14:38:32.850Z,18.60
2023-04-16T14:41:00.448Z,18.60
2023-04-16T14:43:27.470Z,18.60
2023-04-16T14:45:54.237Z,18.60
2023-04-16T14:48:21.921Z,18.60
2023-04-16T14:50:48.709Z,18.60
2023-04-16T14:53:15.418Z,18.60
2023-04-16T14:55:42.146Z,18.60
2023-04-16T14:58:08.861Z,18.70
2023-04-16T15:00:35.654Z,18.60
2023-04-16T15:03:02.640Z,18.60
2023-04-16T15:05:30.153Z,18.60
2023-04-16T15:07:56.902Z,18.60
2023-04-16T15:10:23.636Z,18.60
2023-04-16T15:12:50.321Z,18.60
2023-04-16T15:15:17.540Z,18.60
2023-04-16T15:17:44.391Z,18.60
2023-04-16T15:20:11.702Z,18.60
2023-04-16T15:22:38.460Z,18.60
2023-04-16T15:25:08.636Z,18.60
2023-04-16T15:27:36.375Z,18.60
2023-04-16T15:30:03.337Z,18.60
2023-04-16T15:32:31.128Z,18.60
2023-04-16T15:34:57.793Z,18.60
2023-04-16T15:37:24.412Z,18.60
2023-04-16T15:39:51.123Z,18.70
2023-04-16T15:42:17.806Z,18.70
2023-04-16T15:44:44.544Z,18.70
2023-04-16T15:47:11.185Z,18.70
2023-04-16T15:49:37.923Z,18.70
2023-04-16T15:52:04.766Z,18.70
2023-04-16T15:54:31.977Z,18.70
2023-04-16T15:56:58.907Z,18.70
2023-04-16T15:59:29.037Z,18.80
2023-04-16T16:01:55.797Z,18.70
2023-04-16T16:04:23.365Z,18.70
2023-04-16T16:06:50.681Z,18.70
2023-04-16T16:09:17.833Z,18.70
2023-04-16T16:11:44.502Z,18.70
2023-04-16T16:14:11.166Z,18.70
2023-04-16T16:16:38.039Z,18.70
2023-04-16T16:19:04.956Z,18.70
2023-04-16T16:21:32.488Z,18.60
2023-04-16T16:23:59.268Z,18.60
2023-04-16T16:26:25.943Z,18.60
2023-04-16T16:28:52.675Z,18.60
2023-04-16T16:31:19.406Z,18.50
2023-04-16T16:33:46.107Z,18.50
2023-04-16T16:36:12.920Z,18.50
2023-04-16T16:38:40.764Z,18.40
2023-04-16T16:41:07.524Z,18.40
2023-04-16T16:43:36.608Z,18.40
2023-04-16T16:46:03.370Z,18.30
2023-04-16T16:48:30.093Z,18.30
2023-04-16T16:50:56.714Z,18.30
2023-04-16T16:53:23.426Z,18.30
2023-04-16T16:55:50.086Z,18.20
2023-04-16T16:58:16.992Z,18.20
2023-04-16T17:00:54.894Z,18.20
2023-04-16T17:03:21.634Z,18.20
2023-04-16T17:05:48.365Z,18.10
2023-04-16T17:08:15.434Z,18.10
2023-04-16T17:10:43.483Z,18.10
2023-04-16T17:13:10.447Z,18.10
2023-04-16T17:15:37.174Z,18.10
2023-04-16T17:18:04.018Z,18.00
2023-04-16T17:20:32.395Z,18.00
2023-04-16T17:22:59.346Z,18.00
2023-04-16T17:25:26.175Z,18.00
2023-04-16T17:27:52.774Z,18.00
2023-04-16T17:30:19.556Z,17.90
2023-04-16T17:32:46.324Z,17.90
2023-04-16T17:35:13.681Z,17.90
2023-04-16T17:37:40.647Z,17.90
2023-04-16T17:40:07.847Z,17.80
2023-04-16T17:42:37.558Z,17.80
2023-04-16T17:45:04.528Z,17.80
2023-04-16T17:47:31.370Z,17.80
2023-04-16T17:49:58.004Z,17.70
2023-04-16T17:52:24.682Z,17.70
2023-04-16T17:54:53.040Z,17.70
2023-04-16T17:57:19.662Z,17.70
2023-04-16T17:59:46.312Z,17.60
2023-04-16T18:02:13.087Z,17.60
2023-04-16T18:04:39.950Z,17.60
2023-04-16T18:07:06.704Z,17.50
2023-04-16T18:09:33.340Z,17.50
2023-04-16T18:12:00.032Z,17.40
2023-04-16T18:14:26.749Z,17.40
2023-04-16T18:16:53.480Z,17.40
2023-04-16T18:19:20.213Z,17.30
2023-04-16T18:21:46.897Z,17.30
2023-04-16T18:24:14.467Z,17.30
2023-04-16T18:26:41.375Z,17.20
2023-04-16T18:29:09.028Z,17.20
2023-04-16T18:31:36.006Z,17.10
2023-04-16T18:34:02.848Z,17.10
2023-04-16T18:36:29.659Z,17.00
2023-04-16T18:39:02.089Z,17.00
2023-04-16T18:41:30.602Z,17.00
2023-04-16T18:43:57.395Z,16.90
2023-04-16T18:46:24.219Z,16.90
2023-04-16T18:48:51.029Z,16.90
2023-04-16T18:51:17.650Z,16.80
2023-04-16T18:53:45.470Z,16.70
2023-04-16T18:56:12.585Z,16.70
2023-04-16T18:58:39.287Z,16.60
2023-04-16T19:01:10.747Z,16.60
2023-04-16T19:03:38.088Z,16.60
2023-04-16T19:06:05.846Z,16.50
2023-04-16T19:08:32.618Z,16.50
2023-04-16T19:10:59.279Z,16.50
2023-04-16T19:13:25.994Z,16.50
2023-04-16T19:15:58.268Z,16.40
2023-04-16T19:18:24.993Z,16.40
2023-04-16T19:20:51.698Z,16.40
2023-04-16T19:23:19.075Z,16.40
2023-04-16T19:25:46.399Z,16.30
2023-04-16T19:28:13.061Z,16.30
2023-04-16T19:30:40.216Z,16.30
2023-04-16T19:33:06.950Z,16.30
2023-04-16T19:35:34.539Z,16.30
2023-04-16T19:38:01.197Z,16.30
2023-04-16T19:40:27.852Z,16.30
2023-04-16T19:42:54.939Z,16.20
2023-04-16T19:45:25.683Z,16.20
2023-04-16T19:47:52.501Z,16.10
2023-04-16T19:50:19.932Z,16.10
2023-04-16T19:52:46.754Z,16.10
2023-04-16T19:55:13.465Z,16.10
2023-04-16T19:57:40.210Z,16.10
2023-04-16T20:00:12.094Z,16.00
2023-04-16T20:02:39.405Z,16.00
2023-04-16T20:05:06.378Z,16.00
2023-04-16T20:07:33.136Z,16.00
2023-04-16T20:09:59.858Z,16.00
2023-04-16T20:12:26.470Z,15.90
2023-04-16T20:14:53.153Z,15.90
2023-04-16T20:17:19.960Z,15.90
2023-04-16T20:19:50.932Z,15.90
2023-04-16T20:22:18.518Z,15.90
2023-04-16T20:24:47.957Z,15.80
2023-04-16T20:27:15.297Z,15.80
2023-04-16T20:29:42.137Z,15.80
2023-04-16T20:32:08.855Z,15.80
2023-04-16T20:34:36.571Z,15.80
2023-04-16T20:37:03.734Z,15.80
2023-04-16T20:39:33.906Z,15.80
2023-04-16T20:42:04.009Z,15.70
2023-04-16T20:44:40.372Z,15.70
2023-04-16T20:47:08.355Z,15.70
2023-04-16T20:49:35.242Z,15.70
2023-04-16T20:52:02.435Z,15.70
2023-04-16T20:54:30.004Z,15.70
2023-04-16T20:56:57.266Z,15.70
2023-04-16T20:59:24.354Z,15.70
2023-04-16T21:01:52.086Z,15.60
2023-04-16T21:04:18.985Z,15.60
2023-04-16T21:06:45.841Z,15.60
2023-04-16T21:09:13.345Z,15.60
2023-04-16T21:11:40.229Z,15.60
2023-04-16T21:14:07.011Z,15.60
2023-04-16T21:16:33.721Z,15.60
2023-04-16T21:19:00.447Z,15.50
2023-04-16T21:21:27.440Z,15.50
2023-04-16T21:23:54.128Z,15.50
2023-04-16T21:26:20.842Z,15.50
2023-04-16T21:28:47.496Z,15.50
2023-04-16T21:31:14.163Z,15.40
2023-04-16T21:33:40.872Z,15.40
2023-04-16T21:36:07.765Z,15.40
2023-04-16T21:38:34.487Z,15.40
2023-04-16T21:41:02.122Z,15.40
2023-04-16T21:43:30.553Z,15.40
2023-04-16T21:45:57.384Z,15.30
2023-04-16T21:48:24.345Z,15.30
2023-04-16T21:50:58.991Z,15.30
2023-04-16T21:53:27.805Z,15.30
2023-04-16T21:55:54.584Z,15.20
2023-04-16T21:58:21.223Z,15.20
2023-04-16T22:00:47.936Z,15.20
2023-04-16T22:03:14.833Z,15.30
2023-04-16T22:05:41.536Z,15.20
2023-04-16T22:08:23.325Z,15.20
2023-04-16T22:10:51.467Z,15.10
2023-04-16T22:13:18.218Z,15.10
2023-04-16T22:15:44.890Z,15.10
2023-04-16T22:18:11.564Z,15.10
2023-04-16T22:20:39.074Z,15.10
2023-04-16T22:23:06.756Z,15.10
2023-04-16T22:25:33.668Z,15.10
2023-04-16T22:28:03.229Z,15.10
2023-04-16T22:30:29.953Z,15.10
2023-04-16T22:32:56.690Z,15.10
2023-04-16T22:35:23.428Z,15.10
2023-04-16T22:37:50.054Z,15.10
2023-04-16T22:40:16.828Z,15.10
2023-04-16T22:42:43.544Z,15.10
2023-04-16T22:45:10.745Z,15.10
2023-04-16T22:47:37.563Z,15.10
2023-04-16T22:50:04.849Z,15.10
2023-04-16T22:52:31.621Z,15.10
2023-04-16T22:54:58.308Z,15.10
2023-04-16T22:57:25.600Z,15.00
2023-04-16T22:59:53.212Z,15.00
2023-04-16T23:02:21.170Z,15.00
2023-04-16T23:04:48.072Z,15.00
2023-04-16T23:07:15.558Z,15.00
2023-04-16T23:09:42.536Z,15.00
2023-04-16T23:12:09.262Z,14.90
2023-04-16T23:14:36.764Z,14.90
2023-04-16T23:17:03.415Z,14.90
2023-04-16T23:19:31.106Z,14.90
2023-04-16T23:21:57.967Z,14.90
2023-04-16T23:24:24.713Z,14.90
2023-04-16T23:26:52.397Z,14.80
2023-04-16T23:29:20.490Z,14.80
2023-04-16T23:31:47.651Z,14.80
2023-04-16T23:34:14.420Z,14.80
2023-04-16T23:36:41.089Z,14.80
2023-04-16T23:39:07.808Z,14.80
2023-04-16T23:41:34.884Z,14.80
2023-04-16T23:44:01.591Z,14.80
2023-04-16T23:46:28.387Z,14.70
2023-04-16T23:48:55.272Z,14.70
2023-04-16T23:51:22.275Z,14.70
2023-04-16T23:53:48.952Z,14.70
2023-04-16T23:56:16.220Z,14.60
2023-04-16T23:58:42.981Z,14.60
